sensor_id;sensor_type;location;lat;lon;timestamp;P1;durP1;ratioP1;P2;durP2;ratioP2
40953;SDS011;26686;50.130;8.710;2024-03-07T00:04:30;26.90;;;22.80;;
40953;SDS011;26686;50.130;8.710;2024-03-07T00:09:32;28.42;;;23.55;;
40953;SDS011;26686;50.130;8.710;2024-03-07T00:14:33;25.23;;;21.98;;
40953;SDS011;26686;50.130;8.710;2024-03-07T00:19:36;26.42;;;23.23;;
40953;SDS011;26686;50.130;8.710;2024-03-07T00:24:38;25.02;;;22.20;;
40953;SDS011;26686;50.130;8.710;2024-03-07T00:29:40;25.77;;;21.45;;
40953;SDS011;26686;50.130;8.710;2024-03-07T00:34:42;28.80;;;24.02;;
40953;SDS011;26686;50.130;8.710;2024-03-07T00:39:45;26.98;;;21.75;;
40953;SDS011;26686;50.130;8.710;2024-03-07T00:44:47;27.13;;;22.27;;
40953;SDS011;26686;50.130;8.710;2024-03-07T00:49:48;25.00;;;22.30;;
40953;SDS011;26686;50.130;8.710;2024-03-07T00:54:52;24.83;;;20.85;;
40953;SDS011;26686;50.130;8.710;2024-03-07T00:59:53;26.35;;;21.60;;
40953;SDS011;26686;50.130;8.710;2024-03-07T01:04:55;25.17;;;21.40;;
40953;SDS011;26686;50.130;8.710;2024-03-07T01:09:56;23.60;;;20.70;;
40953;SDS011;26686;50.130;8.710;2024-03-07T01:15:02;23.30;;;20.75;;
40953;SDS011;26686;50.130;8.710;2024-03-07T01:20:05;25.15;;;20.75;;
40953;SDS011;26686;50.130;8.710;2024-03-07T01:25:07;22.52;;;19.23;;
40953;SDS011;26686;50.130;8.710;2024-03-07T01:30:09;25.73;;;20.77;;
40953;SDS011;26686;50.130;8.710;2024-03-07T01:35:11;23.98;;;20.40;;
40953;SDS011;26686;50.130;8.710;2024-03-07T01:40:14;25.00;;;21.20;;
40953;SDS011;26686;50.130;8.710;2024-03-07T01:45:16;22.85;;;20.27;;
40953;SDS011;26686;50.130;8.710;2024-03-07T01:50:21;24.27;;;20.05;;
40953;SDS011;26686;50.130;8.710;2024-03-07T01:55:23;23.15;;;19.02;;
40953;SDS011;26686;50.130;8.710;2024-03-07T02:00:24;21.95;;;19.58;;
40953;SDS011;26686;50.130;8.710;2024-03-07T02:05:26;24.10;;;21.55;;
40953;SDS011;26686;50.130;8.710;2024-03-07T02:10:27;27.80;;;21.02;;
40953;SDS011;26686;50.130;8.710;2024-03-07T02:15:31;23.65;;;21.02;;
40953;SDS011;26686;50.130;8.710;2024-03-07T02:20:34;23.67;;;21.17;;
40953;SDS011;26686;50.130;8.710;2024-03-07T02:25:37;21.70;;;18.88;;
40953;SDS011;26686;50.130;8.710;2024-03-07T02:30:39;23.67;;;20.35;;
40953;SDS011;26686;50.130;8.710;2024-03-07T02:35:40;21.88;;;19.42;;
40953;SDS011;26686;50.130;8.710;2024-03-07T02:40:42;21.88;;;19.05;;
40953;SDS011;26686;50.130;8.710;2024-03-07T02:45:46;22.38;;;18.27;;
40953;SDS011;26686;50.130;8.710;2024-03-07T02:50:47;21.67;;;19.35;;
40953;SDS011;26686;50.130;8.710;2024-03-07T02:55:49;21.92;;;18.33;;
40953;SDS011;26686;50.130;8.710;2024-03-07T03:00:58;19.65;;;17.17;;
40953;SDS011;26686;50.130;8.710;2024-03-07T03:06:01;20.85;;;17.08;;
40953;SDS011;26686;50.130;8.710;2024-03-07T03:11:03;20.75;;;17.98;;
40953;SDS011;26686;50.130;8.710;2024-03-07T03:16:05;18.70;;;16.75;;
40953;SDS011;26686;50.130;8.710;2024-03-07T03:21:08;19.00;;;16.48;;
40953;SDS011;26686;50.130;8.710;2024-03-07T03:26:09;19.55;;;16.65;;
40953;SDS011;26686;50.130;8.710;2024-03-07T03:31:12;22.27;;;18.50;;
40953;SDS011;26686;50.130;8.710;2024-03-07T03:36:15;20.58;;;18.13;;
40953;SDS011;26686;50.130;8.710;2024-03-07T03:41:16;19.58;;;17.45;;
40953;SDS011;26686;50.130;8.710;2024-03-07T03:46:18;22.08;;;17.73;;
40953;SDS011;26686;50.130;8.710;2024-03-07T03:51:19;21.88;;;18.05;;
40953;SDS011;26686;50.130;8.710;2024-03-07T03:56:23;19.45;;;17.35;;
40953;SDS011;26686;50.130;8.710;2024-03-07T04:01:26;20.20;;;17.27;;
40953;SDS011;26686;50.130;8.710;2024-03-07T04:06:27;19.45;;;16.77;;
40953;SDS011;26686;50.130;8.710;2024-03-07T04:11:29;20.35;;;18.15;;
40953;SDS011;26686;50.130;8.710;2024-03-07T04:16:30;21.27;;;17.80;;
40953;SDS011;26686;50.130;8.710;2024-03-07T04:21:32;20.63;;;17.13;;
40953;SDS011;26686;50.130;8.710;2024-03-07T04:26:33;17.95;;;16.05;;
40953;SDS011;26686;50.130;8.710;2024-03-07T04:31:35;19.83;;;17.27;;
40953;SDS011;26686;50.130;8.710;2024-03-07T04:36:36;20.38;;;18.05;;
40953;SDS011;26686;50.130;8.710;2024-03-07T04:41:39;20.35;;;18.13;;
40953;SDS011;26686;50.130;8.710;2024-03-07T04:46:42;27.85;;;23.25;;
40953;SDS011;26686;50.130;8.710;2024-03-07T04:51:45;39.22;;;29.35;;
40953;SDS011;26686;50.130;8.710;2024-03-07T04:56:47;21.95;;;18.15;;
40953;SDS011;26686;50.130;8.710;2024-03-07T05:01:50;21.00;;;17.50;;
40953;SDS011;26686;50.130;8.710;2024-03-07T05:06:52;20.88;;;18.05;;
40953;SDS011;26686;50.130;8.710;2024-03-07T05:11:53;22.02;;;17.60;;
40953;SDS011;26686;50.130;8.710;2024-03-07T05:16:55;20.45;;;18.25;;
40953;SDS011;26686;50.130;8.710;2024-03-07T05:22:06;21.52;;;17.58;;
40953;SDS011;26686;50.130;8.710;2024-03-07T05:27:08;18.83;;;16.83;;
40953;SDS011;26686;50.130;8.710;2024-03-07T05:32:24;20.95;;;17.92;;
40953;SDS011;26686;50.130;8.710;2024-03-07T05:37:29;21.65;;;17.50;;
40953;SDS011;26686;50.130;8.710;2024-03-07T05:42:31;18.27;;;16.40;;
40953;SDS011;26686;50.130;8.710;2024-03-07T05:47:33;21.08;;;17.05;;
40953;SDS011;26686;50.130;8.710;2024-03-07T05:52:35;20.63;;;17.88;;
40953;SDS011;26686;50.130;8.710;2024-03-07T05:57:36;19.52;;;16.48;;
40953;SDS011;26686;50.130;8.710;2024-03-07T06:02:42;20.98;;;18.77;;
40953;SDS011;26686;50.130;8.710;2024-03-07T06:07:43;18.95;;;16.98;;
40953;SDS011;26686;50.130;8.710;2024-03-07T06:12:47;20.05;;;17.92;;
40953;SDS011;26686;50.130;8.710;2024-03-07T06:18:06;19.63;;;17.63;;
40953;SDS011;26686;50.130;8.710;2024-03-07T06:23:13;19.40;;;17.33;;
40953;SDS011;26686;50.130;8.710;2024-03-07T06:28:14;21.08;;;18.80;;
40953;SDS011;26686;50.130;8.710;2024-03-07T06:33:16;22.08;;;17.80;;
40953;SDS011;26686;50.130;8.710;2024-03-07T06:38:19;21.23;;;17.40;;
40953;SDS011;26686;50.130;8.710;2024-03-07T06:43:23;19.63;;;16.70;;
40953;SDS011;26686;50.130;8.710;2024-03-07T06:48:24;19.92;;;17.17;;
40953;SDS011;26686;50.130;8.710;2024-03-07T06:53:27;19.80;;;17.60;;
40953;SDS011;26686;50.130;8.710;2024-03-07T06:58:31;20.80;;;17.95;;
40953;SDS011;26686;50.130;8.710;2024-03-07T07:03:36;20.10;;;16.92;;
40953;SDS011;26686;50.130;8.710;2024-03-07T07:08:41;20.13;;;17.92;;
40953;SDS011;26686;50.130;8.710;2024-03-07T07:13:42;22.30;;;17.80;;
40953;SDS011;26686;50.130;8.710;2024-03-07T07:18:44;18.85;;;16.75;;
40953;SDS011;26686;50.130;8.710;2024-03-07T07:23:46;19.98;;;16.88;;
40953;SDS011;26686;50.130;8.710;2024-03-07T07:28:49;19.30;;;16.92;;
40953;SDS011;26686;50.130;8.710;2024-03-07T07:33:51;21.90;;;16.95;;
40953;SDS011;26686;50.130;8.710;2024-03-07T07:38:53;27.42;;;21.35;;
40953;SDS011;26686;50.130;8.710;2024-03-07T07:44:02;22.58;;;18.25;;
40953;SDS011;26686;50.130;8.710;2024-03-07T07:49:04;19.38;;;15.77;;
40953;SDS011;26686;50.130;8.710;2024-03-07T07:54:07;18.35;;;15.63;;
40953;SDS011;26686;50.130;8.710;2024-03-07T07:59:10;17.92;;;15.98;;
40953;SDS011;26686;50.130;8.710;2024-03-07T08:04:12;18.48;;;16.48;;
40953;SDS011;26686;50.130;8.710;2024-03-07T08:09:13;18.05;;;16.25;;
40953;SDS011;26686;50.130;8.710;2024-03-07T08:14:18;18.83;;;16.77;;
40953;SDS011;26686;50.130;8.710;2024-03-07T08:19:19;20.83;;;16.38;;
40953;SDS011;26686;50.130;8.710;2024-03-07T08:24:23;19.57;;;15.73;;
40953;SDS011;26686;50.130;8.710;2024-03-07T08:29:25;17.52;;;14.88;;
40953;SDS011;26686;50.130;8.710;2024-03-07T08:34:29;17.70;;;15.23;;
40953;SDS011;26686;50.130;8.710;2024-03-07T08:39:32;16.92;;;14.70;;
40953;SDS011;26686;50.130;8.710;2024-03-07T08:44:34;17.02;;;15.23;;
40953;SDS011;26686;50.130;8.710;2024-03-07T08:49:36;17.40;;;15.63;;
40953;SDS011;26686;50.130;8.710;2024-03-07T08:54:37;16.10;;;14.40;;
40953;SDS011;26686;50.130;8.710;2024-03-07T08:59:38;16.80;;;14.80;;
40953;SDS011;26686;50.130;8.710;2024-03-07T09:04:40;17.45;;;14.35;;
40953;SDS011;26686;50.130;8.710;2024-03-07T09:09:41;16.35;;;13.43;;
40953;SDS011;26686;50.130;8.710;2024-03-07T09:14:46;17.05;;;14.88;;
40953;SDS011;26686;50.130;8.710;2024-03-07T09:19:53;16.10;;;14.18;;
40953;SDS011;26686;50.130;8.710;2024-03-07T09:24:55;15.65;;;13.07;;
40953;SDS011;26686;50.130;8.710;2024-03-07T09:29:57;15.13;;;13.07;;
40953;SDS011;26686;50.130;8.710;2024-03-07T09:34:59;16.17;;;14.15;;
40953;SDS011;26686;50.130;8.710;2024-03-07T09:40:04;17.13;;;14.55;;
40953;SDS011;26686;50.130;8.710;2024-03-07T09:45:07;17.75;;;15.48;;
40953;SDS011;26686;50.130;8.710;2024-03-07T09:50:09;17.38;;;14.65;;
40953;SDS011;26686;50.130;8.710;2024-03-07T09:55:10;17.35;;;14.77;;
40953;SDS011;26686;50.130;8.710;2024-03-07T10:00:12;18.00;;;14.85;;
40953;SDS011;26686;50.130;8.710;2024-03-07T10:05:23;16.15;;;14.02;;
40953;SDS011;26686;50.130;8.710;2024-03-07T10:10:28;14.65;;;13.15;;
40953;SDS011;26686;50.130;8.710;2024-03-07T10:15:31;18.42;;;13.52;;
40953;SDS011;26686;50.130;8.710;2024-03-07T10:20:36;15.23;;;13.63;;
40953;SDS011;26686;50.130;8.710;2024-03-07T10:25:39;15.50;;;13.68;;
40953;SDS011;26686;50.130;8.710;2024-03-07T10:30:44;18.65;;;14.48;;
40953;SDS011;26686;50.130;8.710;2024-03-07T10:35:46;17.05;;;14.10;;
40953;SDS011;26686;50.130;8.710;2024-03-07T10:45:55;17.00;;;14.38;;
40953;SDS011;26686;50.130;8.710;2024-03-07T11:01:30;16.80;;;15.05;;
40953;SDS011;26686;50.130;8.710;2024-03-07T11:06:35;16.67;;;14.95;;
40953;SDS011;26686;50.130;8.710;2024-03-07T11:11:41;16.23;;;14.50;;
40953;SDS011;26686;50.130;8.710;2024-03-07T11:16:45;15.75;;;13.75;;
40953;SDS011;26686;50.130;8.710;2024-03-07T11:21:48;17.70;;;14.77;;
40953;SDS011;26686;50.130;8.710;2024-03-07T11:26:51;15.65;;;13.65;;
40953;SDS011;26686;50.130;8.710;2024-03-07T11:31:55;15.48;;;13.75;;
40953;SDS011;26686;50.130;8.710;2024-03-07T11:36:58;15.30;;;13.70;;
40953;SDS011;26686;50.130;8.710;2024-03-07T11:42:01;15.25;;;13.65;;
40953;SDS011;26686;50.130;8.710;2024-03-07T11:47:09;16.20;;;14.50;;
40953;SDS011;26686;50.130;8.710;2024-03-07T11:52:13;15.63;;;14.02;;
40953;SDS011;26686;50.130;8.710;2024-03-07T11:57:17;17.00;;;14.88;;
40953;SDS011;26686;50.130;8.710;2024-03-07T12:02:33;24.50;;;19.83;;
40953;SDS011;26686;50.130;8.710;2024-03-07T12:07:35;14.45;;;12.32;;
40953;SDS011;26686;50.130;8.710;2024-03-07T12:12:37;15.02;;;12.98;;
40953;SDS011;26686;50.130;8.710;2024-03-07T12:17:42;14.52;;;12.63;;
40953;SDS011;26686;50.130;8.710;2024-03-07T12:22:46;13.93;;;12.53;;
40953;SDS011;26686;50.130;8.710;2024-03-07T12:28:02;12.73;;;11.48;;
40953;SDS011;26686;50.130;8.710;2024-03-07T12:33:14;12.88;;;11.07;;
40953;SDS011;26686;50.130;8.710;2024-03-07T12:38:15;11.65;;;10.43;;
40953;SDS011;26686;50.130;8.710;2024-03-07T12:43:22;11.52;;;10.32;;
40953;SDS011;26686;50.130;8.710;2024-03-07T12:48:24;11.50;;;10.32;;
40953;SDS011;26686;50.130;8.710;2024-03-07T12:53:26;10.10;;;9.10;;
40953;SDS011;26686;50.130;8.710;2024-03-07T12:58:27;10.52;;;9.38;;
40953;SDS011;26686;50.130;8.710;2024-03-07T13:03:31;9.93;;;8.90;;
40953;SDS011;26686;50.130;8.710;2024-03-07T13:08:33;12.05;;;9.23;;
40953;SDS011;26686;50.130;8.710;2024-03-07T13:13:39;9.93;;;8.93;;
40953;SDS011;26686;50.130;8.710;2024-03-07T13:18:41;10.13;;;9.13;;
40953;SDS011;26686;50.130;8.710;2024-03-07T13:23:44;10.43;;;9.40;;
40953;SDS011;26686;50.130;8.710;2024-03-07T13:28:45;11.48;;;10.40;;
40953;SDS011;26686;50.130;8.710;2024-03-07T13:33:48;11.30;;;10.20;;
40953;SDS011;26686;50.130;8.710;2024-03-07T13:38:54;11.88;;;10.55;;
40953;SDS011;26686;50.130;8.710;2024-03-07T13:44:08;12.82;;;11.55;;
40953;SDS011;26686;50.130;8.710;2024-03-07T13:49:10;10.70;;;9.60;;
40953;SDS011;26686;50.130;8.710;2024-03-07T13:54:18;11.77;;;10.10;;
40953;SDS011;26686;50.130;8.710;2024-03-07T14:10:49;11.43;;;9.80;;
40953;SDS011;26686;50.130;8.710;2024-03-07T14:16:15;10.65;;;9.55;;
40953;SDS011;26686;50.130;8.710;2024-03-07T14:32:11;9.55;;;8.55;;
40953;SDS011;26686;50.130;8.710;2024-03-07T14:42:30;8.98;;;8.07;;
40953;SDS011;26686;50.130;8.710;2024-03-07T14:47:33;9.95;;;7.72;;
40953;SDS011;26686;50.130;8.710;2024-03-07T14:52:42;7.97;;;7.18;;
40953;SDS011;26686;50.130;8.710;2024-03-07T14:57:50;8.75;;;7.85;;
40953;SDS011;26686;50.130;8.710;2024-03-07T15:02:51;8.90;;;7.70;;
40953;SDS011;26686;50.130;8.710;2024-03-07T15:07:53;8.60;;;7.30;;
40953;SDS011;26686;50.130;8.710;2024-03-07T15:12:55;9.00;;;8.10;;
40953;SDS011;26686;50.130;8.710;2024-03-07T15:17:57;9.07;;;8.00;;
40953;SDS011;26686;50.130;8.710;2024-03-07T15:22:59;8.80;;;7.55;;
40953;SDS011;26686;50.130;8.710;2024-03-07T15:28:02;8.63;;;7.72;;
40953;SDS011;26686;50.130;8.710;2024-03-07T15:33:05;8.68;;;7.45;;
40953;SDS011;26686;50.130;8.710;2024-03-07T15:38:10;8.55;;;7.55;;
40953;SDS011;26686;50.130;8.710;2024-03-07T15:43:15;7.15;;;6.30;;
40953;SDS011;26686;50.130;8.710;2024-03-07T15:48:16;9.20;;;7.60;;
40953;SDS011;26686;50.130;8.710;2024-03-07T15:53:24;9.93;;;8.18;;
40953;SDS011;26686;50.130;8.710;2024-03-07T15:58:26;9.50;;;8.30;;
40953;SDS011;26686;50.130;8.710;2024-03-07T16:03:27;11.85;;;8.07;;
40953;SDS011;26686;50.130;8.710;2024-03-07T16:08:29;8.93;;;7.63;;
40953;SDS011;26686;50.130;8.710;2024-03-07T16:13:31;9.57;;;7.63;;
40953;SDS011;26686;50.130;8.710;2024-03-07T16:18:32;9.80;;;8.18;;
40953;SDS011;26686;50.130;8.710;2024-03-07T16:23:34;11.75;;;9.30;;
40953;SDS011;26686;50.130;8.710;2024-03-07T16:28:35;9.25;;;8.27;;
40953;SDS011;26686;50.130;8.710;2024-03-07T16:33:37;12.43;;;10.13;;
40953;SDS011;26686;50.130;8.710;2024-03-07T16:38:40;9.60;;;7.95;;
40953;SDS011;26686;50.130;8.710;2024-03-07T16:43:41;11.13;;;8.73;;
40953;SDS011;26686;50.130;8.710;2024-03-07T16:48:43;10.05;;;8.77;;
40953;SDS011;26686;50.130;8.710;2024-03-07T16:53:46;11.45;;;10.05;;
40953;SDS011;26686;50.130;8.710;2024-03-07T16:58:50;10.90;;;9.05;;
40953;SDS011;26686;50.130;8.710;2024-03-07T17:03:55;10.55;;;8.68;;
40953;SDS011;26686;50.130;8.710;2024-03-07T17:08:58;8.93;;;8.02;;
40953;SDS011;26686;50.130;8.710;2024-03-07T17:14:02;10.30;;;8.57;;
40953;SDS011;26686;50.130;8.710;2024-03-07T17:19:06;13.70;;;11.27;;
40953;SDS011;26686;50.130;8.710;2024-03-07T17:24:17;9.98;;;7.53;;
40953;SDS011;26686;50.130;8.710;2024-03-07T17:29:21;14.15;;;10.75;;
40953;SDS011;26686;50.130;8.710;2024-03-07T17:34:23;11.30;;;8.38;;
40953;SDS011;26686;50.130;8.710;2024-03-07T17:39:25;9.00;;;6.97;;
40953;SDS011;26686;50.130;8.710;2024-03-07T17:44:27;11.40;;;8.57;;
40953;SDS011;26686;50.130;8.710;2024-03-07T17:49:31;10.45;;;9.20;;
40953;SDS011;26686;50.130;8.710;2024-03-07T17:54:34;11.75;;;10.43;;
40953;SDS011;26686;50.130;8.710;2024-03-07T17:59:35;10.70;;;9.18;;
40953;SDS011;26686;50.130;8.710;2024-03-07T18:04:37;12.75;;;9.57;;
40953;SDS011;26686;50.130;8.710;2024-03-07T18:09:39;10.45;;;8.18;;
40953;SDS011;26686;50.130;8.710;2024-03-07T18:14:43;10.23;;;8.23;;
40953;SDS011;26686;50.130;8.710;2024-03-07T18:20:09;11.07;;;9.07;;
40953;SDS011;26686;50.130;8.710;2024-03-07T18:25:10;14.25;;;10.18;;
40953;SDS011;26686;50.130;8.710;2024-03-07T18:30:13;12.63;;;9.82;;
40953;SDS011;26686;50.130;8.710;2024-03-07T18:35:19;15.40;;;12.43;;
40953;SDS011;26686;50.130;8.710;2024-03-07T18:40:24;13.90;;;10.88;;
40953;SDS011;26686;50.130;8.710;2024-03-07T18:45:27;13.07;;;11.77;;
40953;SDS011;26686;50.130;8.710;2024-03-07T18:50:29;19.40;;;16.15;;
40953;SDS011;26686;50.130;8.710;2024-03-07T18:55:30;16.00;;;14.32;;
40953;SDS011;26686;50.130;8.710;2024-03-07T19:00:33;14.60;;;13.07;;
40953;SDS011;26686;50.130;8.710;2024-03-07T19:05:39;15.02;;;13.50;;
40953;SDS011;26686;50.130;8.710;2024-03-07T19:10:50;14.95;;;13.48;;
40953;SDS011;26686;50.130;8.710;2024-03-07T19:15:52;16.00;;;13.73;;
40953;SDS011;26686;50.130;8.710;2024-03-07T19:20:56;15.20;;;13.57;;
40953;SDS011;26686;50.130;8.710;2024-03-07T19:25:59;16.88;;;14.10;;
40953;SDS011;26686;50.130;8.710;2024-03-07T19:31:09;16.73;;;14.68;;
40953;SDS011;26686;50.130;8.710;2024-03-07T19:36:15;16.27;;;13.93;;
40953;SDS011;26686;50.130;8.710;2024-03-07T19:41:17;16.33;;;14.73;;
40953;SDS011;26686;50.130;8.710;2024-03-07T19:46:18;15.45;;;13.82;;
40953;SDS011;26686;50.130;8.710;2024-03-07T19:51:20;15.68;;;14.07;;
40953;SDS011;26686;50.130;8.710;2024-03-07T19:56:28;15.75;;;13.93;;
40953;SDS011;26686;50.130;8.710;2024-03-07T20:01:29;17.05;;;14.63;;
40953;SDS011;26686;50.130;8.710;2024-03-07T20:06:34;16.05;;;13.95;;
40953;SDS011;26686;50.130;8.710;2024-03-07T20:11:36;15.25;;;13.32;;
40953;SDS011;26686;50.130;8.710;2024-03-07T20:16:39;15.65;;;13.98;;
40953;SDS011;26686;50.130;8.710;2024-03-07T20:21:40;15.05;;;13.05;;
40953;SDS011;26686;50.130;8.710;2024-03-07T20:26:42;13.88;;;11.90;;
40953;SDS011;26686;50.130;8.710;2024-03-07T20:31:49;12.73;;;11.32;;
40953;SDS011;26686;50.130;8.710;2024-03-07T20:36:51;12.43;;;11.23;;
40953;SDS011;26686;50.130;8.710;2024-03-07T20:41:52;14.10;;;12.07;;
40953;SDS011;26686;50.130;8.710;2024-03-07T20:46:56;12.67;;;11.07;;
40953;SDS011;26686;50.130;8.710;2024-03-07T20:51:57;13.10;;;11.45;;
40953;SDS011;26686;50.130;8.710;2024-03-07T20:57:01;16.53;;;11.53;;
40953;SDS011;26686;50.130;8.710;2024-03-07T21:02:06;13.32;;;11.52;;
40953;SDS011;26686;50.130;8.710;2024-03-07T21:07:07;13.02;;;11.25;;
40953;SDS011;26686;50.130;8.710;2024-03-07T21:12:09;13.00;;;11.35;;
40953;SDS011;26686;50.130;8.710;2024-03-07T21:17:11;13.38;;;11.40;;
40953;SDS011;26686;50.130;8.710;2024-03-07T21:22:13;14.35;;;11.45;;
40953;SDS011;26686;50.130;8.710;2024-03-07T21:27:17;12.30;;;11.00;;
40953;SDS011;26686;50.130;8.710;2024-03-07T21:32:20;12.45;;;11.25;;
40953;SDS011;26686;50.130;8.710;2024-03-07T21:37:24;13.33;;;12.00;;
40953;SDS011;26686;50.130;8.710;2024-03-07T21:42:25;14.15;;;11.65;;
40953;SDS011;26686;50.130;8.710;2024-03-07T21:47:26;13.23;;;11.82;;
40953;SDS011;26686;50.130;8.710;2024-03-07T21:52:28;13.00;;;11.70;;
40953;SDS011;26686;50.130;8.710;2024-03-07T22:02:36;14.25;;;12.23;;
40953;SDS011;26686;50.130;8.710;2024-03-07T22:07:54;13.93;;;12.45;;
40953;SDS011;26686;50.130;8.710;2024-03-07T22:12:58;13.20;;;11.80;;
40953;SDS011;26686;50.130;8.710;2024-03-07T22:18:00;15.57;;;13.77;;
40953;SDS011;26686;50.130;8.710;2024-03-07T22:23:02;15.40;;;13.23;;
40953;SDS011;26686;50.130;8.710;2024-03-07T22:28:06;18.13;;;13.55;;
40953;SDS011;26686;50.130;8.710;2024-03-07T22:33:09;15.57;;;13.27;;
40953;SDS011;26686;50.130;8.710;2024-03-07T22:38:11;15.27;;;13.68;;
40953;SDS011;26686;50.130;8.710;2024-03-07T22:43:15;17.50;;;15.43;;
40953;SDS011;26686;50.130;8.710;2024-03-07T22:48:16;13.95;;;12.45;;
40953;SDS011;26686;50.130;8.710;2024-03-07T22:53:19;15.43;;;13.80;;
40953;SDS011;26686;50.130;8.710;2024-03-07T22:58:20;17.38;;;14.70;;
40953;SDS011;26686;50.130;8.710;2024-03-07T23:03:22;16.00;;;14.40;;
40953;SDS011;26686;50.130;8.710;2024-03-07T23:08:26;17.08;;;15.27;;
40953;SDS011;26686;50.130;8.710;2024-03-07T23:13:27;15.25;;;13.20;;
40953;SDS011;26686;50.130;8.710;2024-03-07T23:18:29;14.32;;;12.63;;
40953;SDS011;26686;50.130;8.710;2024-03-07T23:23:31;15.63;;;14.00;;
40953;SDS011;26686;50.130;8.710;2024-03-07T23:28:32;15.40;;;13.57;;
40953;SDS011;26686;50.130;8.710;2024-03-07T23:33:34;16.05;;;13.65;;
40953;SDS011;26686;50.130;8.710;2024-03-07T23:38:36;16.27;;;13.25;;
40953;SDS011;26686;50.130;8.710;2024-03-07T23:43:38;16.20;;;13.65;;
40953;SDS011;26686;50.130;8.710;2024-03-07T23:48:42;14.93;;;13.40;;
40953;SDS011;26686;50.130;8.710;2024-03-07T23:53:44;15.50;;;13.93;;
40953;SDS011;26686;50.130;8.710;2024-03-07T23:58:46;17.05;;;14.60;;
